sensor_id;sensor_type;location;lat;lon;timestamp;pressure;altitude;pressure_sealevel;temperature;humidity
76052;BME280;64751;48.708;9.710;2024-01-30T00:00:47;98932.53;;;0.69;97.76
76052;BME280;64751;48.708;9.710;2024-01-30T00:03:22;98929.13;;;0.68;97.36
76052;BME280;64751;48.708;9.710;2024-01-30T00:05:54;98925.88;;;0.66;97.57
76052;BME280;64751;48.708;9.710;2024-01-30T00:08:27;98923.66;;;0.63;97.71
76052;BME280;64751;48.708;9.710;2024-01-30T00:10:54;98926.25;;;0.63;97.90
76052;BME280;64751;48.708;9.710;2024-01-30T00:13:22;98929.66;;;0.64;98.09
76052;BME280;64751;48.708;9.710;2024-01-30T00:15:50;98933.06;;;0.64;98.17
76052;BME280;64751;48.708;9.710;2024-01-30T00:18:24;98928.22;;;0.61;97.43
76052;BME280;64751;48.708;9.710;2024-01-30T00:20:51;98930.72;;;0.55;96.50
76052;BME280;64751;48.708;9.710;2024-01-30T00:23:24;98934.28;;;0.54;97.21
76052;BME280;64751;48.708;9.710;2024-01-30T00:25:51;98933.03;;;0.50;97.91
76052;BME280;64751;48.708;9.710;2024-01-30T00:28:19;98931.59;;;0.47;97.57
76052;BME280;64751;48.708;9.710;2024-01-30T00:30:52;98932.94;;;0.43;97.17
76052;BME280;64751;48.708;9.710;2024-01-30T00:33:19;98930.53;;;0.42;96.91
76052;BME280;64751;48.708;9.710;2024-01-30T00:35:49;98930.72;;;0.40;98.04
76052;BME280;64751;48.708;9.710;2024-01-30T00:38:16;98949.69;;;0.41;98.29
76052;BME280;64751;48.708;9.710;2024-01-30T00:40:49;98938.78;;;0.45;98.23
76052;BME280;64751;48.708;9.710;2024-01-30T00:43:21;98931.88;;;0.38;97.53
76052;BME280;64751;48.708;9.710;2024-01-30T00:45:50;98937.84;;;0.38;97.47
76052;BME280;64751;48.708;9.710;2024-01-30T00:48:19;98939.66;;;0.38;98.14
76052;BME280;64751;48.708;9.710;2024-01-30T00:50:52;98943.25;;;0.37;97.70
76052;BME280;64751;48.708;9.710;2024-01-30T00:53:26;98946.47;;;0.39;97.91
76052;BME280;64751;48.708;9.710;2024-01-30T00:55:58;98954.09;;;0.40;98.30
76052;BME280;64751;48.708;9.710;2024-01-30T00:58:25;98942.53;;;0.43;98.83
76052;BME280;64751;48.708;9.710;2024-01-30T01:00:53;98942.81;;;0.48;99.21
76052;BME280;64751;48.708;9.710;2024-01-30T01:03:25;98948.38;;;0.45;98.55
76052;BME280;64751;48.708;9.710;2024-01-30T01:05:59;98943.06;;;0.38;98.26
76052;BME280;64751;48.708;9.710;2024-01-30T01:08:31;98939.50;;;0.39;98.20
76052;BME280;64751;48.708;9.710;2024-01-30T01:10:59;98946.66;;;0.37;97.66
76052;BME280;64751;48.708;9.710;2024-01-30T01:13:31;98948.44;;;0.37;97.95
76052;BME280;64751;48.708;9.710;2024-01-30T01:16:04;98959.81;;;0.36;98.46
76052;BME280;64751;48.708;9.710;2024-01-30T01:18:31;98958.00;;;0.36;97.91
76052;BME280;64751;48.708;9.710;2024-01-30T01:21:05;98962.44;;;0.36;97.44
76052;BME280;64751;48.708;9.710;2024-01-30T01:23:32;98968.78;;;0.33;97.10
76052;BME280;64751;48.708;9.710;2024-01-30T01:26:04;98966.34;;;0.32;97.88
76052;BME280;64751;48.708;9.710;2024-01-30T01:28:32;98968.00;;;0.25;97.03
76052;BME280;64751;48.708;9.710;2024-01-30T01:31:04;98973.22;;;0.25;97.76
76052;BME280;64751;48.708;9.710;2024-01-30T01:33:37;98958.63;;;0.24;98.53
76052;BME280;64751;48.708;9.710;2024-01-30T01:36:06;98964.25;;;0.27;98.77
76052;BME280;64751;48.708;9.710;2024-01-30T01:38:38;98965.88;;;0.28;98.42
76052;BME280;64751;48.708;9.710;2024-01-30T01:41:11;98965.69;;;0.30;98.91
76052;BME280;64751;48.708;9.710;2024-01-30T01:43:38;98969.94;;;0.31;98.30
76052;BME280;64751;48.708;9.710;2024-01-30T01:46:06;98967.66;;;0.28;98.21
76052;BME280;64751;48.708;9.710;2024-01-30T01:48:39;98973.88;;;0.27;98.61
76052;BME280;64751;48.708;9.710;2024-01-30T01:51:08;98975.53;;;0.20;97.98
76052;BME280;64751;48.708;9.710;2024-01-30T01:53:36;98967.22;;;0.24;98.30
76052;BME280;64751;48.708;9.710;2024-01-30T01:56:05;98958.63;;;0.24;98.43
76052;BME280;64751;48.708;9.710;2024-01-30T01:58:38;98960.22;;;0.25;98.34
76052;BME280;64751;48.708;9.710;2024-01-30T02:01:11;98958.97;;;0.21;99.21
76052;BME280;64751;48.708;9.710;2024-01-30T02:03:39;98958.97;;;0.21;98.57
76052;BME280;64751;48.708;9.710;2024-01-30T02:06:14;98959.59;;;0.23;99.00
76052;BME280;64751;48.708;9.710;2024-01-30T02:08:42;98954.41;;;0.23;99.26
76052;BME280;64751;48.708;9.710;2024-01-30T02:11:10;98954.78;;;0.20;98.70
76052;BME280;64751;48.708;9.710;2024-01-30T02:13:43;98955.59;;;0.20;98.56
76052;BME280;64751;48.708;9.710;2024-01-30T02:16:10;98952.81;;;0.22;98.80
76052;BME280;64751;48.708;9.710;2024-01-30T02:18:37;98950.19;;;0.22;99.11
76052;BME280;64751;48.708;9.710;2024-01-30T02:21:20;98952.16;;;0.20;99.13
76052;BME280;64751;48.708;9.710;2024-01-30T02:23:48;98954.13;;;0.18;98.90
76052;BME280;64751;48.708;9.710;2024-01-30T02:26:21;98964.25;;;0.13;98.28
76052;BME280;64751;48.708;9.710;2024-01-30T02:28:54;98961.97;;;0.10;99.20
76052;BME280;64751;48.708;9.710;2024-01-30T02:31:21;98956.50;;;0.05;98.61
76052;BME280;64751;48.708;9.710;2024-01-30T02:33:48;98952.47;;;0.02;98.38
76052;BME280;64751;48.708;9.710;2024-01-30T02:36:16;98952.75;;;0.07;99.01
76052;BME280;64751;48.708;9.710;2024-01-30T02:38:45;98943.97;;;0.08;100.00
76052;BME280;64751;48.708;9.710;2024-01-30T02:41:12;98950.78;;;0.09;99.06
76052;BME280;64751;48.708;9.710;2024-01-30T02:43:40;98955.53;;;0.06;98.20
76052;BME280;64751;48.708;9.710;2024-01-30T02:46:07;98949.06;;;0.02;97.87
76052;BME280;64751;48.708;9.710;2024-01-30T02:48:40;98956.50;;;0.05;98.87
76052;BME280;64751;48.708;9.710;2024-01-30T02:51:12;98929.13;;;0.02;99.04
76052;BME280;64751;48.708;9.710;2024-01-30T02:53:40;98938.97;;;0.07;99.53
76052;BME280;64751;48.708;9.710;2024-01-30T02:56:14;98942.19;;;0.09;98.87
76052;BME280;64751;48.708;9.710;2024-01-30T02:58:47;98933.78;;;0.07;99.06
76052;BME280;64751;48.708;9.710;2024-01-30T03:01:14;98939.13;;;0.05;98.70
76052;BME280;64751;48.708;9.710;2024-01-30T03:03:41;98941.63;;;-0.02;98.02
76052;BME280;64751;48.708;9.710;2024-01-30T03:06:09;98934.19;;;-0.05;98.37
76052;BME280;64751;48.708;9.710;2024-01-30T03:08:41;98941.00;;;-0.04;98.57
76052;BME280;64751;48.708;9.710;2024-01-30T03:11:15;98922.47;;;-0.01;98.47
76052;BME280;64751;48.708;9.710;2024-01-30T03:13:47;98933.84;;;-0.02;99.43
76052;BME280;64751;48.708;9.710;2024-01-30T03:16:20;98925.59;;;-0.05;98.78
76052;BME280;64751;48.708;9.710;2024-01-30T03:18:47;98933.28;;;-0.12;97.95
76052;BME280;64751;48.708;9.710;2024-01-30T03:21:20;98930.69;;;-0.12;98.43
76052;BME280;64751;48.708;9.710;2024-01-30T03:23:52;98934.53;;;-0.08;98.54
76052;BME280;64751;48.708;9.710;2024-01-30T03:26:21;98931.94;;;-0.08;99.12
76052;BME280;64751;48.708;9.710;2024-01-30T03:28:49;98939.25;;;-0.11;98.54
76052;BME280;64751;48.708;9.710;2024-01-30T03:31:21;98936.66;;;-0.11;98.69
76052;BME280;64751;48.708;9.710;2024-01-30T03:33:49;98939.44;;;-0.13;98.42
76052;BME280;64751;48.708;9.710;2024-01-30T03:36:16;98935.59;;;-0.17;98.02
76052;BME280;64751;48.708;9.710;2024-01-30T03:38:43;98931.44;;;-0.26;97.69
76052;BME280;64751;48.708;9.710;2024-01-30T03:41:11;98927.56;;;-0.30;98.13
76052;BME280;64751;48.708;9.710;2024-01-30T03:43:44;98935.50;;;-0.31;98.37
76052;BME280;64751;48.708;9.710;2024-01-30T03:46:12;98937.66;;;-0.35;98.17
76052;BME280;64751;48.708;9.710;2024-01-30T03:48:39;98940.88;;;-0.33;98.20
76052;BME280;64751;48.708;9.710;2024-01-30T03:51:06;98951.44;;;-0.34;98.69
76052;BME280;64751;48.708;9.710;2024-01-30T03:53:39;98946.41;;;-0.36;98.25
76052;BME280;64751;48.708;9.710;2024-01-30T03:56:06;98945.94;;;-0.39;97.29
76052;BME280;64751;48.708;9.710;2024-01-30T03:58:34;98951.97;;;-0.39;98.14
76052;BME280;64751;48.708;9.710;2024-01-30T04:01:12;98954.25;;;-0.44;97.59
76052;BME280;64751;48.708;9.710;2024-01-30T04:03:40;98957.03;;;-0.45;98.58
76052;BME280;64751;48.708;9.710;2024-01-30T04:06:12;98951.47;;;-0.42;99.17
76052;BME280;64751;48.708;9.710;2024-01-30T04:08:39;98954.44;;;-0.45;97.77
76052;BME280;64751;48.708;9.710;2024-01-30T04:11:07;98948.13;;;-0.51;97.50
76052;BME280;64751;48.708;9.710;2024-01-30T04:13:34;98948.81;;;-0.57;97.74
76052;BME280;64751;48.708;9.710;2024-01-30T04:16:03;98948.13;;;-0.51;97.80
76052;BME280;64751;48.708;9.710;2024-01-30T04:18:31;98953.31;;;-0.51;98.01
76052;BME280;64751;48.708;9.710;2024-01-30T04:21:00;98952.50;;;-0.51;98.60
76052;BME280;64751;48.708;9.710;2024-01-30T04:23:27;98947.31;;;-0.51;98.03
76052;BME280;64751;48.708;9.710;2024-01-30T04:25:59;98946.16;;;-0.49;98.67
76052;BME280;64751;48.708;9.710;2024-01-30T04:28:32;98953.16;;;-0.49;97.81
76052;BME280;64751;48.708;9.710;2024-01-30T04:31:04;98952.03;;;-0.55;97.17
76052;BME280;64751;48.708;9.710;2024-01-30T04:33:38;98963.38;;;-0.56;97.05
76052;BME280;64751;48.708;9.710;2024-01-30T04:36:08;98964.38;;;-0.57;97.48
76052;BME280;64751;48.708;9.710;2024-01-30T04:38:42;98962.75;;;-0.58;97.25
76052;BME280;64751;48.708;9.710;2024-01-30T04:41:14;98957.94;;;-0.61;97.70
76052;BME280;64751;48.708;9.710;2024-01-30T04:43:46;98952.09;;;-0.63;98.52
76052;BME280;64751;48.708;9.710;2024-01-30T04:46:19;98960.03;;;-0.64;98.29
76052;BME280;64751;48.708;9.710;2024-01-30T04:48:48;98957.63;;;-0.66;97.44
76052;BME280;64751;48.708;9.710;2024-01-30T04:51:20;98962.16;;;-0.68;97.41
76052;BME280;64751;48.708;9.710;2024-01-30T04:53:52;98960.09;;;-0.73;97.03
76052;BME280;64751;48.708;9.710;2024-01-30T04:56:25;98958.47;;;-0.74;97.63
76052;BME280;64751;48.708;9.710;2024-01-30T04:58:57;98949.22;;;-0.76;98.01
76052;BME280;64751;48.708;9.710;2024-01-30T05:01:29;98961.56;;;-0.78;97.05
76052;BME280;64751;48.708;9.710;2024-01-30T05:03:58;98955.41;;;-0.77;97.67
76052;BME280;64751;48.708;9.710;2024-01-30T05:06:26;98956.03;;;-0.75;98.80
76052;BME280;64751;48.708;9.710;2024-01-30T05:08:54;98960.59;;;-0.77;98.23
76052;BME280;64751;48.708;9.710;2024-01-30T05:11:26;98959.97;;;-0.79;98.58
76052;BME280;64751;48.708;9.710;2024-01-30T05:13:58;98958.81;;;-0.77;98.39
76052;BME280;64751;48.708;9.710;2024-01-30T05:16:31;98963.69;;;-0.82;98.29
76052;BME280;64751;48.708;9.710;2024-01-30T05:19:00;98960.28;;;-0.82;98.25
76052;BME280;64751;48.708;9.710;2024-01-30T05:21:32;98958.97;;;-0.78;98.40
76052;BME280;64751;48.708;9.710;2024-01-30T05:24:05;98958.97;;;-0.78;98.06
76052;BME280;64751;48.708;9.710;2024-01-30T05:26:33;98966.75;;;-0.78;98.85
76052;BME280;64751;48.708;9.710;2024-01-30T05:29:00;98965.16;;;-0.79;98.68
76052;BME280;64751;48.708;9.710;2024-01-30T05:31:32;98963.69;;;-0.82;97.30
76052;BME280;64751;48.708;9.710;2024-01-30T05:34:01;98958.03;;;-0.85;97.43
76052;BME280;64751;48.708;9.710;2024-01-30T05:36:29;98963.38;;;-0.87;97.82
76052;BME280;64751;48.708;9.710;2024-01-30T05:38:56;98960.63;;;-0.85;97.82
76052;BME280;64751;48.708;9.710;2024-01-30T05:41:24;98960.63;;;-0.85;98.02
76052;BME280;64751;48.708;9.710;2024-01-30T05:43:56;98966.47;;;-0.83;97.91
76052;BME280;64751;48.708;9.710;2024-01-30T05:46:23;98962.56;;;-0.87;97.43
76052;BME280;64751;48.708;9.710;2024-01-30T05:48:51;98962.75;;;-0.89;97.18
76052;BME280;64751;48.708;9.710;2024-01-30T05:51:20;98960.78;;;-0.87;97.44
76052;BME280;64751;48.708;9.710;2024-01-30T05:53:52;98955.91;;;-0.82;97.86
76052;BME280;64751;48.708;9.710;2024-01-30T05:56:24;98956.38;;;-0.78;98.36
76052;BME280;64751;48.708;9.710;2024-01-30T05:58:54;98952.50;;;-0.82;97.60
76052;BME280;64751;48.708;9.710;2024-01-30T06:01:27;98942.19;;;-0.90;97.36
76052;BME280;64751;48.708;9.710;2024-01-30T06:04:00;98950.75;;;-0.90;97.28
76052;BME280;64751;48.708;9.710;2024-01-30T06:06:29;98958.53;;;-0.90;97.36
76052;BME280;64751;48.708;9.710;2024-01-30T06:09:02;98959.00;;;-0.86;97.40
76052;BME280;64751;48.708;9.710;2024-01-30T06:11:30;98949.09;;;-0.83;98.26
76052;BME280;64751;48.708;9.710;2024-01-30T06:14:02;98958.84;;;-0.85;97.87
76052;BME280;64751;48.708;9.710;2024-01-30T06:16:34;98962.25;;;-0.84;97.51
76052;BME280;64751;48.708;9.710;2024-01-30T06:19:07;98970.03;;;-0.84;98.09
76052;BME280;64751;48.708;9.710;2024-01-30T06:21:35;98970.84;;;-0.92;97.90
76052;BME280;64751;48.708;9.710;2024-01-30T06:24:09;98964.06;;;-0.93;98.09
76052;BME280;64751;48.708;9.710;2024-01-30T06:26:37;98969.06;;;-0.91;98.23
76052;BME280;64751;48.708;9.710;2024-01-30T06:29:04;98962.28;;;-0.92;98.45
76052;BME280;64751;48.708;9.710;2024-01-30T06:31:31;98960.16;;;-0.89;98.86
76052;BME280;64751;48.708;9.710;2024-01-30T06:34:04;98959.00;;;-0.86;98.17
76052;BME280;64751;48.708;9.710;2024-01-30T06:36:31;98975.38;;;-0.86;98.66
76052;BME280;64751;48.708;9.710;2024-01-30T06:39:00;98968.06;;;-0.82;99.06
76052;BME280;64751;48.708;9.710;2024-01-30T06:41:32;98969.25;;;-0.93;98.67
76052;BME280;64751;48.708;9.710;2024-01-30T06:44:05;98962.31;;;-1.00;98.55
76052;BME280;64751;48.708;9.710;2024-01-30T06:46:39;98974.94;;;-0.97;99.00
76052;BME280;64751;48.708;9.710;2024-01-30T06:49:06;98974.75;;;-0.96;99.26
76052;BME280;64751;48.708;9.710;2024-01-30T06:51:39;98978.47;;;-0.90;99.43
76052;BME280;64751;48.708;9.710;2024-01-30T06:54:13;98970.53;;;-0.89;100.00
76052;BME280;64751;48.708;9.710;2024-01-30T06:56:40;98977.34;;;-0.88;100.00
76052;BME280;64751;48.708;9.710;2024-01-30T06:59:14;98977.34;;;-0.88;100.00
76052;BME280;64751;48.708;9.710;2024-01-30T07:01:41;98974.56;;;-0.86;99.89
76052;BME280;64751;48.708;9.710;2024-01-30T07:04:13;98979.44;;;-0.83;99.80
76052;BME280;64751;48.708;9.710;2024-01-30T07:06:42;98984.44;;;-0.82;99.25
76052;BME280;64751;48.708;9.710;2024-01-30T07:09:15;98987.50;;;-0.78;99.51
76052;BME280;64751;48.708;9.710;2024-01-30T07:11:48;98983.75;;;-0.76;99.79
76052;BME280;64751;48.708;9.710;2024-01-30T07:14:20;98976.97;;;-0.77;99.35
76052;BME280;64751;48.708;9.710;2024-01-30T07:16:53;98987.78;;;-0.73;99.58
76052;BME280;64751;48.708;9.710;2024-01-30T07:19:20;98992.34;;;-0.75;99.02
76052;BME280;64751;48.708;9.710;2024-01-30T07:21:52;98996.72;;;-0.76;99.59
76052;BME280;64751;48.708;9.710;2024-01-30T07:24:21;98991.38;;;-0.74;99.90
76052;BME280;64751;48.708;9.710;2024-01-30T07:26:49;98993.97;;;-0.74;99.68
76052;BME280;64751;48.708;9.710;2024-01-30T07:29:16;98998.13;;;-0.65;100.00
76052;BME280;64751;48.708;9.710;2024-01-30T07:31:48;98999.88;;;-0.57;100.00
76052;BME280;64751;48.708;9.710;2024-01-30T07:34:16;99000.00;;;-0.51;100.00
76052;BME280;64751;48.708;9.710;2024-01-30T07:36:43;98995.63;;;-0.50;100.00
76052;BME280;64751;48.708;9.710;2024-01-30T07:39:11;98997.72;;;-0.46;100.00
76052;BME280;64751;48.708;9.710;2024-01-30T07:41:39;99001.59;;;-0.42;100.00
76052;BME280;64751;48.708;9.710;2024-01-30T07:44:12;99000.09;;;-0.36;100.00
76052;BME280;64751;48.708;9.710;2024-01-30T07:46:44;99008.84;;;-0.29;100.00
76052;BME280;64751;48.708;9.710;2024-01-30T07:49:14;99012.06;;;-0.27;100.00
76052;BME280;64751;48.708;9.710;2024-01-30T07:51:47;99012.34;;;-0.22;100.00
76052;BME280;64751;48.708;9.710;2024-01-30T07:54:14;99016.22;;;-0.18;100.00
76052;BME280;64751;48.708;9.710;2024-01-30T07:56:43;99007.91;;;-0.14;100.00
76052;BME280;64751;48.708;9.710;2024-01-30T07:59:11;99009.63;;;-0.06;100.00
76052;BME280;64751;48.708;9.710;2024-01-30T08:01:38;99006.19;;;0.02;100.00
76052;BME280;64751;48.708;9.710;2024-01-30T08:04:11;99005.81;;;0.05;100.00
76052;BME280;64751;48.708;9.710;2024-01-30T08:06:43;99011.50;;;0.08;100.00
76052;BME280;64751;48.708;9.710;2024-01-30T08:09:15;99009.19;;;0.13;100.00
76052;BME280;64751;48.708;9.710;2024-01-30T08:11:49;99007.22;;;0.15;100.00
76052;BME280;64751;48.708;9.710;2024-01-30T08:14:22;99007.69;;;0.19;100.00
76052;BME280;64751;48.708;9.710;2024-01-30T08:16:49;98998.84;;;0.28;100.00
76052;BME280;64751;48.708;9.710;2024-01-30T08:19:22;99009.00;;;0.37;100.00
76052;BME280;64751;48.708;9.710;2024-01-30T08:21:49;99002.94;;;0.45;100.00
76052;BME280;64751;48.708;9.710;2024-01-30T08:24:22;99003.81;;;0.52;100.00
76052;BME280;64751;48.708;9.710;2024-01-30T08:26:55;98999.91;;;0.56;100.00
76052;BME280;64751;48.708;9.710;2024-01-30T08:29:29;98996.41;;;0.63;100.00
76052;BME280;64751;48.708;9.710;2024-01-30T08:32:01;99005.31;;;0.69;100.00
76052;BME280;64751;48.708;9.710;2024-01-30T08:34:29;99004.59;;;0.75;100.00
76052;BME280;64751;48.708;9.710;2024-01-30T08:36:56;98999.47;;;0.82;100.00
76052;BME280;64751;48.708;9.710;2024-01-30T08:39:24;99001.91;;;0.83;100.00
76052;BME280;64751;48.708;9.710;2024-01-30T08:41:57;99001.63;;;0.93;100.00
76052;BME280;64751;48.708;9.710;2024-01-30T08:44:30;99003.72;;;0.97;100.00
76052;BME280;64751;48.708;9.710;2024-01-30T08:46:57;99000.13;;;0.98;100.00
76052;BME280;64751;48.708;9.710;2024-01-30T08:49:30;99002.19;;;1.03;100.00
76052;BME280;64751;48.708;9.710;2024-01-30T08:52:02;98998.88;;;1.09;100.00
76052;BME280;64751;48.708;9.710;2024-01-30T08:54:30;99001.91;;;1.12;100.00
76052;BME280;64751;48.708;9.710;2024-01-30T08:57:06;99003.19;;;1.16;100.00
76052;BME280;64751;48.708;9.710;2024-01-30T08:59:39;99000.81;;;1.21;100.00
76052;BME280;64751;48.708;9.710;2024-01-30T09:02:11;99005.13;;;1.29;100.00
76052;BME280;64751;48.708;9.710;2024-01-30T09:04:44;99005.03;;;1.37;100.00
76052;BME280;64751;48.708;9.710;2024-01-30T09:07:16;98989.06;;;1.40;100.00
76052;BME280;64751;48.708;9.710;2024-01-30T09:09:43;99009.22;;;1.53;100.00
76052;BME280;64751;48.708;9.710;2024-01-30T09:12:17;99008.13;;;1.62;100.00
76052;BME280;64751;48.708;9.710;2024-01-30T09:14:45;99004.81;;;1.68;100.00
76052;BME280;64751;48.708;9.710;2024-01-30T09:17:17;99013.13;;;1.78;100.00
76052;BME280;64751;48.708;9.710;2024-01-30T09:19:45;99008.78;;;1.85;100.00
76052;BME280;64751;48.708;9.710;2024-01-30T09:22:13;99012.09;;;1.93;100.00
76052;BME280;64751;48.708;9.710;2024-01-30T09:24:40;99010.97;;;2.02;100.00
76052;BME280;64751;48.708;9.710;2024-01-30T09:27:13;99011.50;;;2.12;100.00
76052;BME280;64751;48.708;9.710;2024-01-30T09:29:46;99003.34;;;2.22;100.00
76052;BME280;64751;48.708;9.710;2024-01-30T09:32:16;99013.28;;;2.33;100.00
76052;BME280;64751;48.708;9.710;2024-01-30T09:34:49;99006.31;;;2.40;100.00
76052;BME280;64751;48.708;9.710;2024-01-30T09:37:22;99006.44;;;2.53;100.00
76052;BME280;64751;48.708;9.710;2024-01-30T09:39:49;99012.31;;;2.62;99.61
76052;BME280;64751;48.708;9.710;2024-01-30T09:42:21;99015.03;;;2.75;97.78
76052;BME280;64751;48.708;9.710;2024-01-30T09:44:59;99001.88;;;2.89;97.02
76052;BME280;64751;48.708;9.710;2024-01-30T09:47:26;99008.53;;;2.99;97.45
76052;BME280;64751;48.708;9.710;2024-01-30T09:49:59;98999.78;;;3.06;96.69
76052;BME280;64751;48.708;9.710;2024-01-30T09:52:31;99002.81;;;3.16;94.59
76052;BME280;64751;48.708;9.710;2024-01-30T09:55:00;98998.28;;;3.25;94.13
76052;BME280;64751;48.708;9.710;2024-01-30T09:57:28;99001.13;;;3.36;91.61
76052;BME280;64751;48.708;9.710;2024-01-30T09:59:58;99009.63;;;3.45;92.33
76052;BME280;64751;48.708;9.710;2024-01-30T10:02:26;99014.88;;;3.58;90.15
76052;BME280;64751;48.708;9.710;2024-01-30T10:04:53;99016.13;;;3.68;91.25
76052;BME280;64751;48.708;9.710;2024-01-30T10:07:26;99010.53;;;3.78;90.07
76052;BME280;64751;48.708;9.710;2024-01-30T10:09:58;99007.97;;;3.91;90.33
76052;BME280;64751;48.708;9.710;2024-01-30T10:12:30;99010.22;;;4.07;88.38
76052;BME280;64751;48.708;9.710;2024-01-30T10:15:07;99007.00;;;4.18;87.71
76052;BME280;64751;48.708;9.710;2024-01-30T10:17:37;99005.41;;;4.30;87.46
76052;BME280;64751;48.708;9.710;2024-01-30T10:20:05;99008.81;;;4.44;84.89
76052;BME280;64751;48.708;9.710;2024-01-30T10:22:40;99002.59;;;4.52;85.19
76052;BME280;64751;48.708;9.710;2024-01-30T10:25:09;99006.84;;;4.59;84.26
76052;BME280;64751;48.708;9.710;2024-01-30T10:27:42;98997.19;;;4.66;83.98
76052;BME280;64751;48.708;9.710;2024-01-30T10:30:16;99001.97;;;4.76;83.26
76052;BME280;64751;48.708;9.710;2024-01-30T10:32:43;98984.06;;;4.86;82.73
76052;BME280;64751;48.708;9.710;2024-01-30T10:35:11;98989.50;;;4.91;82.93
76052;BME280;64751;48.708;9.710;2024-01-30T10:37:38;98994.09;;;5.02;82.34
76052;BME280;64751;48.708;9.710;2024-01-30T10:40:13;98989.25;;;5.12;81.91
76052;BME280;64751;48.708;9.710;2024-01-30T10:42:43;98995.47;;;5.24;81.38
76052;BME280;64751;48.708;9.710;2024-01-30T10:45:12;98984.16;;;5.30;82.95
76052;BME280;64751;48.708;9.710;2024-01-30T10:47:49;98993.16;;;5.47;83.87
76052;BME280;64751;48.708;9.710;2024-01-30T10:50:24;98999.75;;;5.56;80.99
76052;BME280;64751;48.708;9.710;2024-01-30T10:52:58;98991.69;;;5.64;79.79
76052;BME280;64751;48.708;9.710;2024-01-30T10:55:28;98993.06;;;5.73;78.37
76052;BME280;64751;48.708;9.710;2024-01-30T10:58:02;98992.19;;;5.79;78.69
76052;BME280;64751;48.708;9.710;2024-01-30T11:00:30;98997.03;;;5.89;76.89
76052;BME280;64751;48.708;9.710;2024-01-30T11:03:00;98990.13;;;5.95;78.25
76052;BME280;64751;48.708;9.710;2024-01-30T11:05:33;98997.75;;;6.03;78.74
76052;BME280;64751;48.708;9.710;2024-01-30T11:08:11;98995.69;;;6.11;76.75
76052;BME280;64751;48.708;9.710;2024-01-30T11:10:46;98997.28;;;6.12;78.18
76052;BME280;64751;48.708;9.710;2024-01-30T11:13:15;98982.34;;;6.13;77.47
76052;BME280;64751;48.708;9.710;2024-01-30T11:15:47;98994.81;;;6.17;76.94
76052;BME280;64751;48.708;9.710;2024-01-30T11:18:25;98982.31;;;6.19;76.53
76052;BME280;64751;48.708;9.710;2024-01-30T11:20:59;98989.13;;;6.27;77.37
76052;BME280;64751;48.708;9.710;2024-01-30T11:23:28;98974.78;;;6.29;74.91
76052;BME280;64751;48.708;9.710;2024-01-30T11:26:00;98978.94;;;6.37;76.71
76052;BME280;64751;48.708;9.710;2024-01-30T11:28:32;98973.88;;;6.42;75.48
76052;BME280;64751;48.708;9.710;2024-01-30T11:31:06;98976.88;;;6.45;75.79
76052;BME280;64751;48.708;9.710;2024-01-30T11:33:35;98972.81;;;6.49;75.55
76052;BME280;64751;48.708;9.710;2024-01-30T11:36:08;98971.34;;;6.53;75.26
76052;BME280;64751;48.708;9.710;2024-01-30T11:38:36;98971.53;;;6.58;74.77
76052;BME280;64751;48.708;9.710;2024-01-30T11:41:04;98971.28;;;6.60;73.58
76052;BME280;64751;48.708;9.710;2024-01-30T11:43:31;98964.59;;;6.64;73.96
76052;BME280;64751;48.708;9.710;2024-01-30T11:46:06;98966.22;;;6.65;73.39
76052;BME280;64751;48.708;9.710;2024-01-30T11:48:40;98960.91;;;6.72;72.88
76052;BME280;64751;48.708;9.710;2024-01-30T11:51:08;98962.66;;;6.78;74.05
76052;BME280;64751;48.708;9.710;2024-01-30T11:53:35;98957.56;;;6.83;70.99
76052;BME280;64751;48.708;9.710;2024-01-30T11:56:07;98956.91;;;6.87;72.50
76052;BME280;64751;48.708;9.710;2024-01-30T11:58:35;98958.22;;;6.96;70.89
76052;BME280;64751;48.708;9.710;2024-01-30T12:01:07;98960.19;;;7.01;69.09
76052;BME280;64751;48.708;9.710;2024-01-30T12:03:41;98958.50;;;7.06;68.38
76052;BME280;64751;48.708;9.710;2024-01-30T12:06:08;98958.91;;;7.10;65.99
76052;BME280;64751;48.708;9.710;2024-01-30T12:08:41;98955.03;;;7.12;66.13
76052;BME280;64751;48.708;9.710;2024-01-30T12:11:13;98955.97;;;7.18;65.36
76052;BME280;64751;48.708;9.710;2024-01-30T12:13:46;98957.72;;;7.24;65.93
76052;BME280;64751;48.708;9.710;2024-01-30T12:16:13;98951.44;;;7.25;66.24
76052;BME280;64751;48.708;9.710;2024-01-30T12:18:42;98950.94;;;7.35;65.95
76052;BME280;64751;48.708;9.710;2024-01-30T12:21:16;98949.69;;;7.37;64.37
76052;BME280;64751;48.708;9.710;2024-01-30T12:23:49;98947.56;;;7.46;64.68
76052;BME280;64751;48.708;9.710;2024-01-30T12:26:21;98941.88;;;7.49;65.98
76052;BME280;64751;48.708;9.710;2024-01-30T12:28:54;98942.22;;;7.52;64.90
76052;BME280;64751;48.708;9.710;2024-01-30T12:31:27;98943.03;;;7.53;64.71
76052;BME280;64751;48.708;9.710;2024-01-30T12:33:56;98936.88;;;7.59;64.28
76052;BME280;64751;48.708;9.710;2024-01-30T12:36:23;98938.50;;;7.60;64.07
76052;BME280;64751;48.708;9.710;2024-01-30T12:38:56;98937.59;;;7.66;62.44
76052;BME280;64751;48.708;9.710;2024-01-30T12:41:24;98929.94;;;7.64;63.09
76052;BME280;64751;48.708;9.710;2024-01-30T12:43:59;98924.69;;;7.64;64.22
76052;BME280;64751;48.708;9.710;2024-01-30T12:46:34;98928.66;;;7.67;62.10
76052;BME280;64751;48.708;9.710;2024-01-30T12:49:07;98928.81;;;7.72;64.98
76052;BME280;64751;48.708;9.710;2024-01-30T12:51:35;98921.28;;;7.75;62.53
76052;BME280;64751;48.708;9.710;2024-01-30T12:54:07;98929.09;;;7.82;62.97
76052;BME280;64751;48.708;9.710;2024-01-30T12:56:40;98934.69;;;7.85;62.15
76052;BME280;64751;48.708;9.710;2024-01-30T12:59:07;98928.41;;;7.86;61.82
76052;BME280;64751;48.708;9.710;2024-01-30T13:01:34;98921.66;;;7.90;61.35
76052;BME280;64751;48.708;9.710;2024-01-30T13:04:08;98915.25;;;7.98;60.02
76052;BME280;64751;48.708;9.710;2024-01-30T13:06:36;98915.97;;;8.05;60.89
76052;BME280;64751;48.708;9.710;2024-01-30T13:09:09;98922.41;;;8.09;62.15
76052;BME280;64751;48.708;9.710;2024-01-30T13:11:36;98914.50;;;8.09;60.28
76052;BME280;64751;48.708;9.710;2024-01-30T13:14:08;98911.66;;;8.11;59.02
76052;BME280;64751;48.708;9.710;2024-01-30T13:16:36;98912.22;;;8.13;58.83
76052;BME280;64751;48.708;9.710;2024-01-30T13:19:10;98911.41;;;8.12;59.26
76052;BME280;64751;48.708;9.710;2024-01-30T13:21:42;98915.78;;;8.18;58.43